WetterOnline ( https://www.wetteronline.de )

Wetter aktuell Cuxhaven

Aktuelles Wetter: Cuxhaven (12m)

6-stündlich | Neueste Meldungen
Ortszeit Temperatur Wetter
So, 16.05. 2:00 9.0° C bewölkt
Sa, 15.05. 20:00 10.1° C Regen
Sa, 15.05. 14:00 10.7° C Sprühregen
Sa, 15.05. 8:00 8.9° C bedeckt
Sa, 15.05. 2:00 8.4° C bedeckt
Fr, 14.05. 20:00 8.7° C leichter Regen
Fr, 14.05. 14:00 9.7° C bedeckt
Fr, 14.05. 8:00 9.0° C bedeckt
Ortszeit Temperatur Wetter
So, 16.05. 5:30 8.6° C bedeckt
So, 16.05. 5:20 8.6° C bedeckt
So, 16.05. 5:10 8.6° C bedeckt
So, 16.05. 5:00 8.9° C bedeckt
So, 16.05. 4:50 8.9° C bedeckt
So, 16.05. 4:40 8.9° C bedeckt
So, 16.05. 4:30 9.1° C bedeckt
So, 16.05. 4:00 9.2° C bedeckt
Ortszeit Relative Feuchte Sichtweite
So, 16.05. 2:00 96% 8 km
Sa, 15.05. 20:00 92% 25 km
Sa, 15.05. 14:00 82% 13 km
Sa, 15.05. 8:00 84% 35 km
Sa, 15.05. 2:00 83% 35 km
Fr, 14.05. 20:00 90% 18 km
Fr, 14.05. 14:00 81% 30 km
Fr, 14.05. 8:00 87% 21 km
Ortszeit Relative Feuchte Sichtweite
So, 16.05. 5:30 95% 9 km
So, 16.05. 5:20 95% -
So, 16.05. 5:10 95% -
So, 16.05. 5:00 95% 9 km
So, 16.05. 4:50 95% -
So, 16.05. 4:40 95% -
So, 16.05. 4:30 95% 10 km
So, 16.05. 4:00 95% 10 km
Ortszeit Niederschlagsmenge Niederschlagsart
So, 16.05. 2:00 0.0 l/m2 in 6 Std. -
Sa, 15.05. 20:00 7 l/m2 in 12 Std. Regen
Sa, 15.05. 14:00 0.2 l/m2 in 6 Std. Regen
Sa, 15.05. 8:00 0.1 l/m2 in 12 Std. -
Sa, 15.05. 2:00 0.1 l/m2 in 6 Std. Regen
Fr, 14.05. 20:00 3 l/m2 in 12 Std. Regen
Fr, 14.05. 14:00 0.1 l/m2 in 6 Std. Regen
Fr, 14.05. 8:00 0.2 l/m2 in 12 Std. Regen
Ortszeit Niederschlagsmenge Niederschlagsart
So, 16.05. 5:30 0.0 l/m2 in 1 Std. -
So, 16.05. 5:20 keine Meldung -
So, 16.05. 5:10 keine Meldung -
So, 16.05. 5:00 0.0 l/m2 in 1 Std. -
So, 16.05. 4:50 keine Meldung -
So, 16.05. 4:40 keine Meldung -
So, 16.05. 4:30 0.0 l/m2 in 1 Std. -
So, 16.05. 4:00 0.0 l/m2 in 1 Std. -
Ortszeit Stärke Spitze Richtung
km/h Bft. km/h Grad Sektor
So, 16.05. 2:00 7 2 29 130° SO
Sa, 15.05. 20:00 6 1 41 60° NO
Sa, 15.05. 14:00 13 3 17 120° SO
Sa, 15.05. 8:00 7 2 25 240° SW
Sa, 15.05. 2:00 13 3 24 250° W
Fr, 14.05. 20:00 14 3 36 270° W
Fr, 14.05. 14:00 22 4 35 280° W
Fr, 14.05. 8:00 14 3 25 280° W
Ortszeit Stärke Spitze Richtung
km/h Bft. km/h Grad Sektor
So, 16.05. 5:30 7 2 14 150° SO
So, 16.05. 5:20 7 2 - 150° SO
So, 16.05. 5:10 7 2 - 160° S
So, 16.05. 5:00 9 2 17 150° SO
So, 16.05. 4:50 9 2 - 150° SO
So, 16.05. 4:40 7 2 - 140° SO
So, 16.05. 4:30 7 2 17 130° SO
So, 16.05. 4:00 11 2 14 130° SO
Ortszeit Untergrenze Bedeckung Gattung
total tief tief mittel hoch
So, 16.05. 2:00 5100 m 7/8 7/8 - - -
Sa, 15.05. 20:00 1800 m 8/8 8/8 - - -
Sa, 15.05. 14:00 420 m 8/8 8/8 - - -
Sa, 15.05. 8:00 420 m 8/8 8/8 - - -
Sa, 15.05. 2:00 450 m 8/8 8/8 - - -
Fr, 14.05. 20:00 420 m 7/8 7/8 - - -
Fr, 14.05. 14:00 480 m 8/8 8/8 - - -
Fr, 14.05. 8:00 330 m 8/8 8/8 - - -
Ortszeit Bedeckungsgrad in Achtel und Wolkenuntergrenze
So, 16.05. 5:30 8(1800m)
So, 16.05. 5:20 8(1800m)
So, 16.05. 5:10 2(1500m) 8(1800m)
So, 16.05. 5:00 8(1500m) 8(1800m)
So, 16.05. 4:50 8(1500m)
So, 16.05. 4:40 8(1500m)
So, 16.05. 4:30 2(990m) 8(1500m) 8(2700m)
So, 16.05. 4:00 1(990m) 7(1800m) 8(2700m)
Ortszeit Luftdruck NN (hPa) Tendenz (hPa in 3 Std.)
So, 16.05. 2:00 1001 - 0,8
Sa, 15.05. 20:00 1002 - 1,1
Sa, 15.05. 14:00 1004 - 1,0
Sa, 15.05. 8:00 1006 - 0,2
Sa, 15.05. 2:00 1007 - 0,2
Fr, 14.05. 20:00 1007 - 0,5
Fr, 14.05. 14:00 1007 + 0,7
Fr, 14.05. 8:00 1006 0,0
Ortszeit Luftdruck NN (hPa) Tendenz (hPa in 3 Std.)
So, 16.05. 5:30 1000 - 0,5
So, 16.05. 5:20 1000 keine Meldung
So, 16.05. 5:10 1000 keine Meldung
So, 16.05. 5:00 1000 - 0,7
So, 16.05. 4:50 1000 keine Meldung
So, 16.05. 4:40 1000 keine Meldung
So, 16.05. 4:30 1000 - 0,7
So, 16.05. 4:00 1000 - 0,7
Ortszeit Schneehöhe (cm)
So, 16.05. 2:00 0
Sa, 15.05. 20:00 0
Sa, 15.05. 14:00 0
Sa, 15.05. 8:00 0
Sa, 15.05. 2:00 0
Fr, 14.05. 20:00 0
Fr, 14.05. 14:00 0
Fr, 14.05. 8:00 0
Ortszeit Schneehöhe (cm)
So, 16.05. 5:30 0
So, 16.05. 5:20 0
So, 16.05. 5:10 0
So, 16.05. 5:00 0
So, 16.05. 4:50 0
So, 16.05. 4:40 0
So, 16.05. 4:30 0
So, 16.05. 4:00 0
Link zu dieser Seite / Seite empfehlen

Das Wetter in ...